createdAt,value
2022-10-19T00:00:14.867Z,12.77
2022-10-19T00:00:45.441Z,12.77
2022-10-19T00:01:16.059Z,12.77
2022-10-19T00:01:46.684Z,12.77
2022-10-19T00:02:17.289Z,12.76
2022-10-19T00:02:47.853Z,12.73
2022-10-19T00:03:22.257Z,12.70
2022-10-19T00:04:19.739Z,12.63
2022-10-19T00:04:50.322Z,12.59
2022-10-19T00:05:20.890Z,12.55
2022-10-19T00:05:51.463Z,12.49
2022-10-19T00:06:22.031Z,12.49
2022-10-19T00:06:52.580Z,12.44
2022-10-19T00:07:23.134Z,12.44
2022-10-19T00:07:53.739Z,12.44
2022-10-19T00:08:24.304Z,12.44
2022-10-19T00:08:54.881Z,12.46
2022-10-19T00:09:25.466Z,12.48
2022-10-19T00:09:56.043Z,12.48
2022-10-19T00:10:26.646Z,12.49
2022-10-19T00:10:57.198Z,12.49
2022-10-19T00:11:27.774Z,12.49
2022-10-19T00:11:58.336Z,12.51
2022-10-19T00:12:28.928Z,12.52
2022-10-19T00:12:59.478Z,12.51
2022-10-19T00:13:30.071Z,12.52
2022-10-19T00:14:00.654Z,12.52
2022-10-19T00:14:31.169Z,12.52
2022-10-19T00:15:01.745Z,12.52
2022-10-19T00:15:32.325Z,12.52
2022-10-19T00:16:03.635Z,12.52
2022-10-19T00:16:33.888Z,12.51
2022-10-19T00:17:04.487Z,12.52
2022-10-19T00:17:35.304Z,12.54
2022-10-19T00:18:05.963Z,12.52
2022-10-19T00:18:36.498Z,12.55
2022-10-19T00:19:07.031Z,12.55
2022-10-19T00:19:37.615Z,12.55
2022-10-19T00:20:08.186Z,12.52
2022-10-19T00:20:38.766Z,12.51
2022-10-19T00:21:09.338Z,12.49
2022-10-19T00:21:40.038Z,12.48
2022-10-19T00:22:13.138Z,12.48
2022-10-19T00:22:41.505Z,12.46
2022-10-19T00:23:12.033Z,12.46
2022-10-19T00:23:42.637Z,12.48
2022-10-19T00:24:13.164Z,12.48
2022-10-19T00:24:43.734Z,12.49
2022-10-19T00:25:14.285Z,12.49
2022-10-19T00:25:44.847Z,12.51
2022-10-19T00:26:15.399Z,12.49
2022-10-19T00:26:46.007Z,12.51
2022-10-19T00:27:16.601Z,12.52
2022-10-19T00:27:47.174Z,12.52
2022-10-19T00:28:17.736Z,12.49
2022-10-19T00:28:48.384Z,12.48
2022-10-19T00:29:18.956Z,12.44
2022-10-19T00:29:49.551Z,12.40
2022-10-19T00:30:20.125Z,12.37
2022-10-19T00:30:50.749Z,12.31
2022-10-19T00:31:21.289Z,12.31
2022-10-19T00:31:51.847Z,12.29
2022-10-19T00:32:22.429Z,12.30
2022-10-19T00:32:52.975Z,12.25
2022-10-19T00:33:23.562Z,12.25
2022-10-19T00:33:54.116Z,12.25
2022-10-19T00:34:24.675Z,12.25
2022-10-19T00:34:55.272Z,12.25
2022-10-19T00:35:25.877Z,12.29
2022-10-19T00:35:56.453Z,12.30
2022-10-19T00:36:27.007Z,12.30
2022-10-19T00:36:57.572Z,12.29
2022-10-19T00:37:28.160Z,12.30
2022-10-19T00:37:58.717Z,12.30
2022-10-19T00:38:29.303Z,12.30
2022-10-19T00:38:59.881Z,12.29
2022-10-19T00:39:30.461Z,12.30
2022-10-19T00:40:01.080Z,12.29
2022-10-19T00:40:31.628Z,12.29
2022-10-19T00:41:02.226Z,12.30
2022-10-19T00:41:32.792Z,12.30
2022-10-19T00:42:03.335Z,12.30
2022-10-19T00:42:34.299Z,12.26
2022-10-19T00:43:04.479Z,12.26
2022-10-19T00:43:35.038Z,12.29
2022-10-19T00:44:05.606Z,12.22
2022-10-19T00:44:36.142Z,12.21
2022-10-19T00:45:06.716Z,12.22
2022-10-19T00:45:37.276Z,12.19
2022-10-19T00:46:07.876Z,12.21
2022-10-19T00:46:38.460Z,12.22
2022-10-19T00:47:09.019Z,12.23
2022-10-19T00:47:39.595Z,12.23
2022-10-19T00:48:10.141Z,12.23
2022-10-19T00:48:40.721Z,12.21
2022-10-19T00:49:11.305Z,12.22
2022-10-19T00:49:41.876Z,12.23
2022-10-19T00:50:12.440Z,12.23
2022-10-19T00:50:42.968Z,12.25
2022-10-19T00:51:13.546Z,12.23
2022-10-19T00:51:44.099Z,12.22
2022-10-19T00:52:14.669Z,12.23
2022-10-19T00:52:45.247Z,12.23
2022-10-19T00:53:15.796Z,12.23
2022-10-19T00:53:46.380Z,12.23
2022-10-19T00:54:16.976Z,12.22
2022-10-19T00:54:47.544Z,12.21
2022-10-19T00:55:18.117Z,12.19
2022-10-19T00:55:48.680Z,12.18
2022-10-19T00:56:19.263Z,12.16
2022-10-19T00:56:49.857Z,12.15
2022-10-19T00:57:20.385Z,12.13
2022-10-19T00:58:21.541Z,12.12
2022-10-19T00:58:52.138Z,12.08
2022-10-19T00:59:22.705Z,12.11
2022-10-19T00:59:53.304Z,12.08
2022-10-19T01:00:23.880Z,12.07
2022-10-19T01:00:54.500Z,12.05
2022-10-19T01:01:25.133Z,12.03
2022-10-19T01:01:55.709Z,12.04
2022-10-19T01:02:26.275Z,12.07
2022-10-19T01:02:57.000Z,12.07
2022-10-19T01:03:27.542Z,12.12
2022-10-19T01:03:58.117Z,12.13
2022-10-19T01:04:28.659Z,12.16
2022-10-19T01:04:59.194Z,12.19
2022-10-19T01:05:29.777Z,12.18
2022-10-19T01:06:00.360Z,12.19
2022-10-19T01:06:30.941Z,12.21
2022-10-19T01:07:01.516Z,12.21
2022-10-19T01:07:32.400Z,12.21
2022-10-19T01:08:02.774Z,12.22
2022-10-19T01:08:33.341Z,12.22
2022-10-19T01:09:03.886Z,12.19
2022-10-19T01:09:34.478Z,12.22
2022-10-19T01:10:05.056Z,12.18
2022-10-19T01:10:35.620Z,12.19
2022-10-19T01:11:06.200Z,12.19
2022-10-19T01:11:36.752Z,12.19
2022-10-19T01:12:07.311Z,12.19
2022-10-19T01:12:37.902Z,12.19
2022-10-19T01:13:08.496Z,12.21
2022-10-19T01:13:39.099Z,12.21
2022-10-19T01:14:09.666Z,12.21
2022-10-19T01:14:40.280Z,12.23
2022-10-19T01:15:10.854Z,12.23
2022-10-19T01:15:41.462Z,12.23
2022-10-19T01:16:12.036Z,12.25
2022-10-19T01:16:42.595Z,12.25
2022-10-19T01:17:13.173Z,12.26
2022-10-19T01:17:43.739Z,12.26
2022-10-19T01:18:14.344Z,12.30
2022-10-19T01:18:44.922Z,12.29
2022-10-19T01:19:15.479Z,12.30
2022-10-19T01:19:46.048Z,12.33
2022-10-19T01:20:16.616Z,12.33
2022-10-19T01:20:47.188Z,12.34
2022-10-19T01:21:17.772Z,12.31
2022-10-19T01:21:48.337Z,12.33
2022-10-19T01:22:18.920Z,12.31
2022-10-19T01:22:49.495Z,12.31
2022-10-19T01:23:20.036Z,12.30
2022-10-19T01:23:50.580Z,12.31
2022-10-19T01:24:21.178Z,12.31
2022-10-19T01:24:51.815Z,12.31
2022-10-19T01:25:22.382Z,12.34
2022-10-19T01:25:52.983Z,12.34
2022-10-19T01:26:23.560Z,12.36
2022-10-19T01:26:54.115Z,12.40
2022-10-19T01:27:24.669Z,12.40
2022-10-19T01:27:55.234Z,12.40
2022-10-19T01:28:25.819Z,12.40
2022-10-19T01:28:56.468Z,12.40
2022-10-19T01:29:27.056Z,12.41
2022-10-19T01:29:57.636Z,12.38
2022-10-19T01:30:28.223Z,12.40
2022-10-19T01:30:58.764Z,12.40
2022-10-19T01:31:29.330Z,12.40
2022-10-19T01:31:59.900Z,12.37
2022-10-19T01:32:30.451Z,12.38
2022-10-19T01:33:01.014Z,12.38
2022-10-19T01:33:31.614Z,12.38
2022-10-19T01:34:02.172Z,12.40
2022-10-19T01:34:32.777Z,12.40
2022-10-19T01:35:03.379Z,12.38
2022-10-19T01:35:33.962Z,12.40
2022-10-19T01:36:04.530Z,12.40
2022-10-19T01:36:35.103Z,12.38
2022-10-19T01:37:05.680Z,12.38
2022-10-19T01:37:36.511Z,12.36
2022-10-19T01:38:07.194Z,12.33
2022-10-19T01:38:37.766Z,12.33
2022-10-19T01:39:08.330Z,12.31
2022-10-19T01:39:38.917Z,12.30
2022-10-19T01:40:09.494Z,12.30
2022-10-19T01:40:40.075Z,12.31
2022-10-19T01:41:10.613Z,12.33
2022-10-19T01:41:41.155Z,12.34
2022-10-19T01:42:11.707Z,12.36
2022-10-19T01:42:42.343Z,12.36
2022-10-19T01:43:12.919Z,12.37
2022-10-19T01:43:43.484Z,12.40
2022-10-19T01:44:14.066Z,12.41
2022-10-19T01:44:44.627Z,12.43
2022-10-19T01:45:15.213Z,12.44
2022-10-19T01:45:45.775Z,12.48
2022-10-19T01:46:16.337Z,12.49
2022-10-19T01:46:46.955Z,12.49
2022-10-19T01:47:17.519Z,12.51
2022-10-19T01:47:48.104Z,12.51
2022-10-19T01:48:18.686Z,12.49
2022-10-19T01:48:49.286Z,12.52
2022-10-19T01:49:19.854Z,12.52
2022-10-19T01:49:50.429Z,12.54
2022-10-19T01:50:20.979Z,12.54
2022-10-19T01:50:51.512Z,12.56
2022-10-19T01:51:22.072Z,12.58
2022-10-19T01:51:52.682Z,12.58
2022-10-19T01:52:23.254Z,12.59
2022-10-19T01:52:53.821Z,12.62
2022-10-19T01:53:24.368Z,12.62
2022-10-19T01:53:54.948Z,12.63
2022-10-19T01:54:25.520Z,12.67
2022-10-19T01:54:56.121Z,12.66
2022-10-19T01:55:26.696Z,12.67
2022-10-19T01:55:57.271Z,12.67
2022-10-19T01:56:27.841Z,12.69
2022-10-19T01:56:58.434Z,12.69
2022-10-19T01:57:29.007Z,12.70
2022-10-19T01:57:59.587Z,12.71
2022-10-19T01:58:30.158Z,12.73
2022-10-19T01:59:00.732Z,12.73
2022-10-19T01:59:31.414Z,12.74
2022-10-19T02:00:01.949Z,12.73
2022-10-19T02:00:32.527Z,12.76
2022-10-19T02:01:03.136Z,12.76
2022-10-19T02:01:33.690Z,12.76
2022-10-19T02:02:04.257Z,12.76
2022-10-19T02:02:35.173Z,12.77
2022-10-19T02:03:05.350Z,12.79
2022-10-19T02:03:35.907Z,12.77
2022-10-19T02:04:06.514Z,12.77
2022-10-19T02:04:37.069Z,12.77
2022-10-19T02:05:07.659Z,12.74
2022-10-19T02:05:38.248Z,12.74
2022-10-19T02:06:08.794Z,12.76
2022-10-19T02:06:39.361Z,12.76
2022-10-19T02:07:09.944Z,12.74
2022-10-19T02:07:40.520Z,12.74
2022-10-19T02:08:11.109Z,12.74
2022-10-19T02:08:41.670Z,12.73
2022-10-19T02:09:12.250Z,12.73
2022-10-19T02:09:42.791Z,12.74
2022-10-19T02:10:44.408Z,12.74
2022-10-19T02:11:14.980Z,12.77
2022-10-19T02:11:48.970Z,12.77
2022-10-19T02:12:16.306Z,12.76
2022-10-19T02:12:46.864Z,12.76
2022-10-19T02:13:17.588Z,12.77
2022-10-19T02:13:48.166Z,12.77
2022-10-19T02:14:18.744Z,12.79
2022-10-19T02:14:49.315Z,12.79
2022-10-19T02:15:19.883Z,12.80
2022-10-19T02:15:50.455Z,12.80
2022-10-19T02:16:21.050Z,12.81
2022-10-19T02:16:51.637Z,12.81
2022-10-19T02:17:22.265Z,12.81
2022-10-19T02:17:52.840Z,12.81
2022-10-19T02:18:23.417Z,12.81
2022-10-19T02:18:53.991Z,12.84
2022-10-19T02:19:55.156Z,12.85
2022-10-19T02:20:25.724Z,12.85
2022-10-19T02:20:56.299Z,12.87
2022-10-19T02:21:26.887Z,12.85
2022-10-19T02:21:57.458Z,12.85
2022-10-19T02:22:28.068Z,12.85
2022-10-19T02:22:58.645Z,12.87
2022-10-19T02:23:29.236Z,12.84
2022-10-19T02:23:59.813Z,12.87
2022-10-19T02:24:30.354Z,12.88
2022-10-19T02:25:00.917Z,12.89
2022-10-19T02:25:31.494Z,12.89
2022-10-19T02:26:02.065Z,12.89
2022-10-19T02:26:32.653Z,12.91
2022-10-19T02:27:03.241Z,12.92
2022-10-19T02:27:33.839Z,12.92
2022-10-19T02:28:04.396Z,12.94
2022-10-19T02:28:34.963Z,12.95
2022-10-19T02:29:05.523Z,12.96
2022-10-19T02:29:36.100Z,12.98
2022-10-19T02:30:06.664Z,12.98
2022-10-19T02:30:37.250Z,12.99
2022-10-19T02:31:07.816Z,12.98
2022-10-19T02:31:38.351Z,12.98
2022-10-19T02:32:08.932Z,12.99
2022-10-19T02:32:39.482Z,13.01
2022-10-19T02:33:10.028Z,12.99
2022-10-19T02:33:40.591Z,13.03
2022-10-19T02:34:11.152Z,13.03
2022-10-19T02:34:41.767Z,13.03
2022-10-19T02:35:12.324Z,13.04
2022-10-19T02:35:42.893Z,13.07
2022-10-19T02:36:13.473Z,13.07
2022-10-19T02:36:44.050Z,13.07
2022-10-19T02:37:14.709Z,13.06
2022-10-19T02:37:45.240Z,13.07
2022-10-19T02:38:15.824Z,13.09
2022-10-19T02:38:46.403Z,13.09
2022-10-19T02:39:16.973Z,13.10
2022-10-19T02:39:47.511Z,13.10
2022-10-19T02:40:18.055Z,13.10
2022-10-19T02:40:48.624Z,13.10
2022-10-19T02:41:19.184Z,13.10
2022-10-19T02:41:49.789Z,13.10
2022-10-19T02:42:20.347Z,13.12
2022-10-19T02:42:50.921Z,13.12
2022-10-19T02:43:21.505Z,13.12
2022-10-19T02:43:52.088Z,13.12
2022-10-19T02:44:22.680Z,13.12
2022-10-19T02:44:53.238Z,13.14
2022-10-19T02:45:23.809Z,13.14
2022-10-19T02:45:54.363Z,13.14
2022-10-19T02:46:24.928Z,13.14
2022-10-19T02:46:55.465Z,13.17
2022-10-19T02:47:26.057Z,13.17
2022-10-19T02:47:56.645Z,13.17
2022-10-19T02:48:27.225Z,13.17
2022-10-19T02:48:57.784Z,13.19
2022-10-19T02:49:28.348Z,13.19
2022-10-19T02:49:58.949Z,13.19
2022-10-19T02:50:29.475Z,13.21
2022-10-19T02:51:00.031Z,13.21
2022-10-19T02:51:30.621Z,13.19
2022-10-19T02:52:01.185Z,13.21
2022-10-19T02:52:31.776Z,13.21
2022-10-19T02:53:02.330Z,13.22
2022-10-19T02:53:33.060Z,13.21
2022-10-19T02:54:05.239Z,13.22
2022-10-19T02:54:34.523Z,13.24
2022-10-19T02:55:05.116Z,13.25
2022-10-19T02:55:35.719Z,13.25
2022-10-19T02:56:06.276Z,13.24
2022-10-19T02:56:36.834Z,13.24
2022-10-19T02:57:07.421Z,13.25
2022-10-19T02:57:38.003Z,13.25
2022-10-19T02:58:08.603Z,13.25
2022-10-19T02:58:39.177Z,13.25
2022-10-19T02:59:09.733Z,13.25
2022-10-19T02:59:40.298Z,13.27
2022-10-19T03:00:10.869Z,13.27
2022-10-19T03:00:41.482Z,13.27
2022-10-19T03:01:12.081Z,13.28
2022-10-19T03:01:42.632Z,13.28
2022-10-19T03:02:13.211Z,13.29
2022-10-19T03:02:43.802Z,13.28
2022-10-19T03:03:14.391Z,13.29
2022-10-19T03:03:44.965Z,13.29
2022-10-19T03:04:15.530Z,13.29
2022-10-19T03:05:16.714Z,13.31
2022-10-19T03:05:47.250Z,13.29
2022-10-19T03:06:17.836Z,13.31
2022-10-19T03:06:48.397Z,13.31
2022-10-19T03:07:18.924Z,13.31
2022-10-19T03:07:49.484Z,13.31
2022-10-19T03:08:20.075Z,13.32
2022-10-19T03:08:50.622Z,13.31
2022-10-19T03:09:21.203Z,13.32
2022-10-19T03:09:51.731Z,13.32
2022-10-19T03:10:22.302Z,13.35
2022-10-19T03:10:52.881Z,13.35
2022-10-19T03:11:23.443Z,13.32
2022-10-19T03:11:53.992Z,13.35
2022-10-19T03:12:24.583Z,13.31
2022-10-19T03:12:55.175Z,13.35
2022-10-19T03:13:25.762Z,13.35
2022-10-19T03:13:56.322Z,13.35
2022-10-19T03:14:26.915Z,13.36
2022-10-19T03:14:57.491Z,13.38
2022-10-19T03:15:28.067Z,13.36
2022-10-19T03:15:58.635Z,13.36
2022-10-19T03:16:29.240Z,13.38
2022-10-19T03:16:59.795Z,13.39
2022-10-19T03:17:30.368Z,13.38
2022-10-19T03:18:01.011Z,13.38
2022-10-19T03:18:31.682Z,13.39
2022-10-19T03:19:02.208Z,13.36
2022-10-19T03:19:32.799Z,13.39
2022-10-19T03:20:03.378Z,13.41
2022-10-19T03:20:33.977Z,13.41
2022-10-19T03:21:04.513Z,13.39
2022-10-19T03:21:35.099Z,13.39
2022-10-19T03:22:05.680Z,13.41
2022-10-19T03:22:36.232Z,13.43
2022-10-19T03:23:06.813Z,13.43
2022-10-19T03:23:37.396Z,13.41
2022-10-19T03:24:07.959Z,13.43
2022-10-19T03:24:38.502Z,13.41
2022-10-19T03:25:09.058Z,13.43
2022-10-19T03:25:39.669Z,13.43
2022-10-19T03:26:12.253Z,13.41
2022-10-19T03:26:40.956Z,13.41
2022-10-19T03:27:11.525Z,13.43
2022-10-19T03:27:42.115Z,13.44
2022-10-19T03:28:12.693Z,13.44
2022-10-19T03:28:43.395Z,13.46
2022-10-19T03:29:14.044Z,13.46
2022-10-19T03:29:44.582Z,13.46
2022-10-19T03:30:15.148Z,13.44
2022-10-19T03:30:45.696Z,13.46
2022-10-19T03:31:16.283Z,13.46
2022-10-19T03:31:46.861Z,13.44
2022-10-19T03:32:17.385Z,13.46
2022-10-19T03:32:47.959Z,13.46
2022-10-19T03:33:18.612Z,13.46
2022-10-19T03:33:49.157Z,13.47
2022-10-19T03:34:19.758Z,13.47
2022-10-19T03:34:50.327Z,13.48
2022-10-19T03:35:20.920Z,13.47
2022-10-19T03:35:51.489Z,13.47
2022-10-19T03:36:22.017Z,13.46
2022-10-19T03:36:52.593Z,13.48
2022-10-19T03:37:23.141Z,13.47
2022-10-19T03:37:53.736Z,13.47
2022-10-19T03:38:24.323Z,13.48
2022-10-19T03:38:54.904Z,13.48
2022-10-19T03:39:25.476Z,13.47
2022-10-19T03:39:56.032Z,13.47
2022-10-19T03:40:26.609Z,13.47
2022-10-19T03:40:57.163Z,13.47
2022-10-19T03:41:27.759Z,13.47
2022-10-19T03:41:58.335Z,13.47
2022-10-19T03:42:28.893Z,13.48
2022-10-19T03:42:59.459Z,13.48
2022-10-19T03:43:30.033Z,13.48
2022-10-19T03:44:31.176Z,13.48
2022-10-19T03:45:01.781Z,13.48
2022-10-19T03:45:32.350Z,13.48
2022-10-19T03:46:02.949Z,13.48
2022-10-19T03:46:33.498Z,13.48
2022-10-19T03:47:04.072Z,13.48
2022-10-19T03:47:35.022Z,13.48
2022-10-19T03:48:05.198Z,13.48
2022-10-19T03:48:35.741Z,13.48
2022-10-19T03:49:06.313Z,13.48
2022-10-19T03:49:39.513Z,13.48
2022-10-19T03:50:07.763Z,13.48
2022-10-19T03:50:38.351Z,13.48
2022-10-19T03:51:08.947Z,13.48
2022-10-19T03:51:39.483Z,13.50
2022-10-19T03:52:10.237Z,13.48
2022-10-19T03:52:40.857Z,13.48
2022-10-19T03:53:11.441Z,13.48
2022-10-19T03:53:42.019Z,13.50
2022-10-19T03:54:12.616Z,13.48
2022-10-19T03:54:43.189Z,13.48
2022-10-19T03:55:13.786Z,13.48
2022-10-19T03:55:44.328Z,13.47
2022-10-19T03:56:14.966Z,13.47
2022-10-19T03:56:45.541Z,13.48
2022-10-19T03:57:16.104Z,13.48
2022-10-19T03:57:46.650Z,13.48
2022-10-19T03:58:17.239Z,13.50
2022-10-19T03:58:47.826Z,13.50
2022-10-19T03:59:18.394Z,13.48
2022-10-19T03:59:48.963Z,13.47
2022-10-19T04:00:19.512Z,13.48
2022-10-19T04:00:50.136Z,13.48
2022-10-19T04:01:20.858Z,13.50
2022-10-19T04:01:51.437Z,13.48
2022-10-19T04:02:21.993Z,13.47
2022-10-19T04:02:52.582Z,13.47
2022-10-19T04:03:23.155Z,13.47
2022-10-19T04:03:53.691Z,13.47
2022-10-19T04:04:24.256Z,13.48
2022-10-19T04:04:54.863Z,13.50
2022-10-19T04:05:25.453Z,13.48
2022-10-19T04:05:56.048Z,13.50
2022-10-19T04:06:26.636Z,13.48
2022-10-19T04:06:57.207Z,13.48
2022-10-19T04:07:27.790Z,13.50
2022-10-19T04:07:58.319Z,13.48
2022-10-19T04:08:28.894Z,13.51
2022-10-19T04:08:59.462Z,13.47
2022-10-19T04:09:30.026Z,13.48
2022-10-19T04:10:00.613Z,13.50
2022-10-19T04:10:31.178Z,13.48
2022-10-19T04:11:01.749Z,13.48
2022-10-19T04:11:32.313Z,13.48
2022-10-19T04:12:02.897Z,13.47
2022-10-19T04:12:33.490Z,13.47
2022-10-19T04:13:04.057Z,13.48
2022-10-19T04:13:34.617Z,13.47
2022-10-19T04:14:05.310Z,13.48
2022-10-19T04:14:52.410Z,13.48
2022-10-19T04:15:06.703Z,13.48
2022-10-19T04:15:37.265Z,13.48
2022-10-19T04:16:07.842Z,13.50
2022-10-19T04:16:38.416Z,13.47
2022-10-19T04:17:08.984Z,13.47
2022-10-19T04:17:39.514Z,13.47
2022-10-19T04:18:10.078Z,13.46
2022-10-19T04:18:40.710Z,13.47
2022-10-19T04:19:11.278Z,13.48
2022-10-19T04:19:41.858Z,13.47
2022-10-19T04:20:12.402Z,13.47
2022-10-19T04:20:42.969Z,13.48
2022-10-19T04:21:13.548Z,13.46
2022-10-19T04:21:44.148Z,13.48
2022-10-19T04:22:14.699Z,13.47
2022-10-19T04:22:45.290Z,13.47
2022-10-19T04:23:46.395Z,13.51
2022-10-19T04:24:16.997Z,13.47
2022-10-19T04:24:47.555Z,13.46
2022-10-19T04:25:18.147Z,13.47
2022-10-19T04:25:48.743Z,13.48
2022-10-19T04:26:19.298Z,13.47
2022-10-19T04:26:49.871Z,13.46
2022-10-19T04:27:20.442Z,13.47
2022-10-19T04:27:50.993Z,13.47
2022-10-19T04:28:21.551Z,13.47
2022-10-19T04:28:52.192Z,13.48
2022-10-19T04:29:25.023Z,13.48
2022-10-19T04:29:53.538Z,13.46
2022-10-19T04:30:24.127Z,13.47
2022-10-19T04:30:54.694Z,13.47
2022-10-19T04:31:25.261Z,13.47
2022-10-19T04:31:55.838Z,13.48
2022-10-19T04:32:26.423Z,13.47
2022-10-19T04:32:57.006Z,13.47
2022-10-19T04:33:27.559Z,13.48
2022-10-19T04:33:58.115Z,13.50
2022-10-19T04:34:28.709Z,13.47
2022-10-19T04:34:59.282Z,13.47
2022-10-19T04:35:29.869Z,13.47
2022-10-19T04:36:00.480Z,13.47
2022-10-19T04:36:31.108Z,13.46
2022-10-19T04:37:01.710Z,13.46
2022-10-19T04:37:32.754Z,13.46
2022-10-19T04:38:02.901Z,13.44
2022-10-19T04:38:33.444Z,13.46
2022-10-19T04:39:04.006Z,13.44
2022-10-19T04:39:34.580Z,13.46
2022-10-19T04:40:05.152Z,13.44
2022-10-19T04:40:35.689Z,13.44
2022-10-19T04:41:06.257Z,13.46
2022-10-19T04:41:36.857Z,13.46
2022-10-19T04:42:07.448Z,13.44
2022-10-19T04:42:38.011Z,13.44
2022-10-19T04:43:08.591Z,13.44
2022-10-19T04:43:39.137Z,13.44
2022-10-19T04:44:09.804Z,13.44
2022-10-19T04:44:40.417Z,13.46
2022-10-19T04:45:10.960Z,13.44
2022-10-19T04:45:41.539Z,13.44
2022-10-19T04:46:12.117Z,13.43
2022-10-19T04:46:42.705Z,13.43
2022-10-19T04:47:13.275Z,13.41
2022-10-19T04:47:43.840Z,13.41
2022-10-19T04:48:15.229Z,13.39
2022-10-19T04:48:45.423Z,13.41
2022-10-19T04:49:19.382Z,13.41
2022-10-19T04:49:45.780Z,13.41
2022-10-19T04:50:17.375Z,13.43
2022-10-19T04:50:47.927Z,13.41
2022-10-19T04:51:18.508Z,13.39
2022-10-19T04:51:49.072Z,13.36
2022-10-19T04:52:19.663Z,13.36
2022-10-19T04:52:50.218Z,13.35
2022-10-19T04:53:20.902Z,13.35
2022-10-19T04:53:52.508Z,13.35
2022-10-19T04:54:22.374Z,13.35
2022-10-19T04:54:52.957Z,13.35
2022-10-19T04:55:23.531Z,13.35
2022-10-19T04:55:54.085Z,13.32
2022-10-19T04:56:24.673Z,13.32
2022-10-19T04:56:55.261Z,13.35
2022-10-19T04:57:25.819Z,13.32
2022-10-19T04:57:56.458Z,13.31
2022-10-19T04:58:27.004Z,13.32
2022-10-19T04:58:57.643Z,13.31
2022-10-19T04:59:28.186Z,13.31
2022-10-19T04:59:58.754Z,13.32
2022-10-19T05:00:29.323Z,13.31
2022-10-19T05:01:00.003Z,13.31
2022-10-19T05:01:30.643Z,13.32
2022-10-19T05:02:01.190Z,13.35
2022-10-19T05:02:31.759Z,13.32
2022-10-19T05:03:02.320Z,13.35
2022-10-19T05:03:32.888Z,13.32
2022-10-19T05:04:03.484Z,13.32
2022-10-19T05:04:34.062Z,13.32
2022-10-19T05:05:04.650Z,13.32
2022-10-19T05:05:35.226Z,13.32
2022-10-19T05:06:05.814Z,13.36
2022-10-19T05:06:36.386Z,13.35
2022-10-19T05:07:06.999Z,13.35
2022-10-19T05:07:37.577Z,13.32
2022-10-19T05:08:08.179Z,13.32
2022-10-19T05:08:38.948Z,13.35
2022-10-19T05:09:09.805Z,13.32
2022-10-19T05:09:41.114Z,13.32
2022-10-19T05:10:12.356Z,13.32
2022-10-19T05:10:44.311Z,13.32
2022-10-19T05:11:13.170Z,13.32
2022-10-19T05:11:44.278Z,13.29
2022-10-19T05:12:14.324Z,13.28
2022-10-19T05:12:44.978Z,13.27
2022-10-19T05:13:15.547Z,13.27
2022-10-19T05:13:46.133Z,13.25
2022-10-19T05:14:16.789Z,13.25
2022-10-19T05:14:47.350Z,13.27
2022-10-19T05:15:17.920Z,13.27
2022-10-19T05:15:48.516Z,13.27
2022-10-19T05:16:19.125Z,13.27
2022-10-19T05:16:49.742Z,13.27
2022-10-19T05:17:20.272Z,13.27
2022-10-19T05:17:50.861Z,13.28
2022-10-19T05:18:21.557Z,13.27
2022-10-19T05:18:52.124Z,13.27
2022-10-19T05:19:22.696Z,13.27
2022-10-19T05:19:53.245Z,13.27
2022-10-19T05:20:23.929Z,13.28
2022-10-19T05:20:54.451Z,13.27
2022-10-19T05:21:25.454Z,13.28
2022-10-19T05:21:56.490Z,13.29
2022-10-19T05:22:27.022Z,13.29
2022-10-19T05:22:57.678Z,13.29
2022-10-19T05:23:28.270Z,13.29
2022-10-19T05:23:58.841Z,13.29
2022-10-19T05:24:29.396Z,13.29
2022-10-19T05:24:59.928Z,13.31
2022-10-19T05:25:30.462Z,13.31
2022-10-19T05:26:01.043Z,13.29
2022-10-19T05:26:31.585Z,13.31
2022-10-19T05:27:02.117Z,13.29
2022-10-19T05:27:33.599Z,13.28
2022-10-19T05:28:03.896Z,13.29
2022-10-19T05:28:34.539Z,13.31
2022-10-19T05:29:05.160Z,13.32
2022-10-19T05:29:35.680Z,13.31
2022-10-19T05:30:06.782Z,13.31
2022-10-19T05:30:37.318Z,13.31
2022-10-19T05:31:07.870Z,13.31
2022-10-19T05:31:38.414Z,13.29
2022-10-19T05:32:08.941Z,13.29
2022-10-19T05:32:39.467Z,13.29
2022-10-19T05:33:10.001Z,13.29
2022-10-19T05:33:40.565Z,13.27
2022-10-19T05:34:11.089Z,13.29
2022-10-19T05:34:41.596Z,13.29
2022-10-19T05:35:12.663Z,13.29
2022-10-19T05:35:43.184Z,13.32
2022-10-19T05:36:13.722Z,13.31
2022-10-19T05:36:44.735Z,13.32
2022-10-19T05:37:15.782Z,13.31
2022-10-19T05:37:46.299Z,13.35
2022-10-19T05:38:16.850Z,13.32
2022-10-19T05:38:47.345Z,13.35
2022-10-19T05:39:17.887Z,13.31
2022-10-19T05:39:48.386Z,13.32
2022-10-19T05:40:19.402Z,13.32
2022-10-19T05:40:53.496Z,13.35
2022-10-19T05:41:20.604Z,13.35
2022-10-19T05:41:51.140Z,13.36
2022-10-19T05:42:22.147Z,13.35
2022-10-19T05:42:53.158Z,13.38
2022-10-19T05:43:23.683Z,13.36
2022-10-19T05:43:54.697Z,13.38
2022-10-19T05:44:25.793Z,13.38
2022-10-19T05:44:56.294Z,13.39
2022-10-19T05:45:27.312Z,13.38
2022-10-19T05:45:58.405Z,13.39
2022-10-19T05:46:28.943Z,13.39
2022-10-19T05:46:59.454Z,13.39
2022-10-19T05:47:31.079Z,13.39
2022-10-19T05:48:00.725Z,13.39
2022-10-19T05:48:31.241Z,13.39
2022-10-19T05:49:02.289Z,13.38
2022-10-19T05:49:32.851Z,13.38
2022-10-19T05:50:03.379Z,13.38
2022-10-19T05:50:34.383Z,13.38
2022-10-19T05:51:05.398Z,13.36
2022-10-19T05:51:36.442Z,13.36
2022-10-19T05:52:06.952Z,13.35
2022-10-19T05:52:38.067Z,13.32
2022-10-19T05:53:08.661Z,13.32
2022-10-19T05:54:10.168Z,13.32
2022-10-19T05:54:41.204Z,13.32
2022-10-19T05:55:11.749Z,13.32
2022-10-19T05:55:42.292Z,13.35
2022-10-19T05:56:12.802Z,13.32
2022-10-19T05:56:43.360Z,13.35
2022-10-19T05:57:13.948Z,13.38
2022-10-19T05:57:44.534Z,13.36
2022-10-19T05:58:15.059Z,13.36
2022-10-19T05:58:45.608Z,13.36
2022-10-19T05:59:16.153Z,13.38
2022-10-19T05:59:47.167Z,13.38
2022-10-19T06:00:17.688Z,13.38
2022-10-19T06:00:48.724Z,13.38
2022-10-19T06:01:19.249Z,13.38
2022-10-19T06:01:50.298Z,13.38
2022-10-19T06:02:20.873Z,13.38
2022-10-19T06:02:54.668Z,13.41
2022-10-19T06:03:22.626Z,13.39
2022-10-19T06:03:53.666Z,13.39
2022-10-19T06:04:24.190Z,13.41
2022-10-19T06:04:55.202Z,13.41
2022-10-19T06:05:26.232Z,13.43
2022-10-19T06:05:57.268Z,13.43
2022-10-19T06:06:28.283Z,13.43
2022-10-19T06:06:58.807Z,13.43
2022-10-19T06:07:29.924Z,13.43
2022-10-19T06:08:00.430Z,13.43
2022-10-19T06:08:30.952Z,13.43
2022-10-19T06:09:01.515Z,13.43
2022-10-19T06:09:32.521Z,13.43
2022-10-19T06:10:03.045Z,13.43
2022-10-19T06:10:33.565Z,13.44
2022-10-19T06:11:04.598Z,13.44
2022-10-19T06:11:35.627Z,13.46
2022-10-19T06:12:06.652Z,13.44
2022-10-19T06:12:37.685Z,13.46
2022-10-19T06:13:08.200Z,13.44
2022-10-19T06:13:38.737Z,13.44
2022-10-19T06:14:09.253Z,13.44
2022-10-19T06:14:40.342Z,13.46
2022-10-19T06:15:10.855Z,13.46
2022-10-19T06:15:41.879Z,13.46
2022-10-19T06:16:12.410Z,13.46
2022-10-19T06:16:43.405Z,13.47
2022-10-19T06:17:14.445Z,13.47
2022-10-19T06:17:45.034Z,13.47
2022-10-19T06:18:15.535Z,13.46
2022-10-19T06:18:46.054Z,13.48
2022-10-19T06:19:16.581Z,13.47
2022-10-19T06:19:47.151Z,13.47
2022-10-19T06:20:17.661Z,13.47
2022-10-19T06:20:48.668Z,13.48
2022-10-19T06:21:19.735Z,13.47
2022-10-19T06:21:50.237Z,13.48
2022-10-19T06:22:21.248Z,13.47
2022-10-19T06:22:52.243Z,13.46
2022-10-19T06:23:22.770Z,13.48
2022-10-19T06:23:53.808Z,13.48
2022-10-19T06:24:24.851Z,13.50
2022-10-19T06:24:55.332Z,13.50
2022-10-19T06:25:26.358Z,13.50
2022-10-19T06:25:56.915Z,13.50
2022-10-19T06:26:27.395Z,13.50
2022-10-19T06:26:57.917Z,13.51
2022-10-19T06:27:28.954Z,13.50
2022-10-19T06:27:59.452Z,13.51
2022-10-19T06:28:30.490Z,13.50
2022-10-19T06:29:01.030Z,13.51
2022-10-19T06:29:31.539Z,13.51
2022-10-19T06:30:02.069Z,13.53
2022-10-19T06:30:32.687Z,13.51
2022-10-19T06:31:06.046Z,13.51
2022-10-19T06:31:33.931Z,13.53
2022-10-19T06:32:04.436Z,13.54
2022-10-19T06:32:35.476Z,13.55
2022-10-19T06:33:06.490Z,13.54
2022-10-19T06:33:37.107Z,13.55
2022-10-19T06:34:07.822Z,13.54
2022-10-19T06:34:38.328Z,13.54
2022-10-19T06:35:08.862Z,13.54
2022-10-19T06:35:39.379Z,13.55
2022-10-19T06:36:09.922Z,13.55
2022-10-19T06:36:40.436Z,13.57
2022-10-19T06:37:10.965Z,13.59
2022-10-19T06:37:41.484Z,13.59
2022-10-19T06:38:12.419Z,13.59